sensor_id;sensor_type;location;lat;lon;timestamp;temperature;humidity
16728;DHT22;8482;54.396;18.590;2022-10-31T00:00:59;11.10;99.90
16728;DHT22;8482;54.396;18.590;2022-10-31T00:03:26;11.20;99.90
16728;DHT22;8482;54.396;18.590;2022-10-31T00:05:52;11.20;99.90
16728;DHT22;8482;54.396;18.590;2022-10-31T00:08:19;11.20;99.90
16728;DHT22;8482;54.396;18.590;2022-10-31T00:10:45;11.20;99.90
16728;DHT22;8482;54.396;18.590;2022-10-31T00:13:13;11.10;99.90
16728;DHT22;8482;54.396;18.590;2022-10-31T00:15:40;11.10;99.90
16728;DHT22;8482;54.396;18.590;2022-10-31T00:18:07;11.10;99.90
16728;DHT22;8482;54.396;18.590;2022-10-31T00:20:34;11.10;99.90
16728;DHT22;8482;54.396;18.590;2022-10-31T00:23:02;11.10;99.90
16728;DHT22;8482;54.396;18.590;2022-10-31T00:25:33;11.10;99.90
16728;DHT22;8482;54.396;18.590;2022-10-31T00:28:03;11.10;99.90
16728;DHT22;8482;54.396;18.590;2022-10-31T00:30:29;11.00;99.90
16728;DHT22;8482;54.396;18.590;2022-10-31T00:32:55;11.00;99.90
16728;DHT22;8482;54.396;18.590;2022-10-31T00:35:21;11.00;99.90
16728;DHT22;8482;54.396;18.590;2022-10-31T00:37:47;10.90;99.90
16728;DHT22;8482;54.396;18.590;2022-10-31T00:40:13;10.90;99.90
16728;DHT22;8482;54.396;18.590;2022-10-31T00:42:40;10.90;99.90
16728;DHT22;8482;54.396;18.590;2022-10-31T00:45:09;10.90;99.90
16728;DHT22;8482;54.396;18.590;2022-10-31T00:47:35;10.90;99.90
16728;DHT22;8482;54.396;18.590;2022-10-31T00:50:01;10.80;99.90
16728;DHT22;8482;54.396;18.590;2022-10-31T00:52:28;10.90;99.90
16728;DHT22;8482;54.396;18.590;2022-10-31T00:54:54;10.80;99.90
16728;DHT22;8482;54.396;18.590;2022-10-31T00:57:20;10.80;99.90
16728;DHT22;8482;54.396;18.590;2022-10-31T00:59:45;10.80;99.90
16728;DHT22;8482;54.396;18.590;2022-10-31T01:02:11;10.80;99.90
16728;DHT22;8482;54.396;18.590;2022-10-31T01:04:37;10.80;99.90
16728;DHT22;8482;54.396;18.590;2022-10-31T01:07:03;10.80;99.90
16728;DHT22;8482;54.396;18.590;2022-10-31T01:09:29;10.80;99.90
16728;DHT22;8482;54.396;18.590;2022-10-31T01:11:55;10.80;99.90
16728;DHT22;8482;54.396;18.590;2022-10-31T01:14:20;10.80;99.90
16728;DHT22;8482;54.396;18.590;2022-10-31T01:16:46;10.80;99.90
16728;DHT22;8482;54.396;18.590;2022-10-31T01:19:12;10.80;99.90
16728;DHT22;8482;54.396;18.590;2022-10-31T01:21:38;10.70;99.90
16728;DHT22;8482;54.396;18.590;2022-10-31T01:24:04;10.70;99.90
16728;DHT22;8482;54.396;18.590;2022-10-31T01:26:31;10.70;99.90
16728;DHT22;8482;54.396;18.590;2022-10-31T01:29:04;10.70;99.90
16728;DHT22;8482;54.396;18.590;2022-10-31T01:31:36;10.70;99.90
16728;DHT22;8482;54.396;18.590;2022-10-31T01:34:04;10.70;99.90
16728;DHT22;8482;54.396;18.590;2022-10-31T01:36:36;10.70;99.90
16728;DHT22;8482;54.396;18.590;2022-10-31T01:39:11;10.60;99.90
16728;DHT22;8482;54.396;18.590;2022-10-31T01:41:43;10.70;99.90
16728;DHT22;8482;54.396;18.590;2022-10-31T01:46:42;10.70;99.90
16728;DHT22;8482;54.396;18.590;2022-10-31T01:51:55;10.80;99.90
16728;DHT22;8482;54.396;18.590;2022-10-31T01:54:34;10.80;99.90
16728;DHT22;8482;54.396;18.590;2022-10-31T01:57:08;10.80;99.90
16728;DHT22;8482;54.396;18.590;2022-10-31T01:59:43;10.80;99.90
16728;DHT22;8482;54.396;18.590;2022-10-31T02:02:13;10.80;99.90
16728;DHT22;8482;54.396;18.590;2022-10-31T02:04:42;10.90;99.90
16728;DHT22;8482;54.396;18.590;2022-10-31T02:07:16;10.90;99.90
16728;DHT22;8482;54.396;18.590;2022-10-31T02:09:47;10.90;99.90
16728;DHT22;8482;54.396;18.590;2022-10-31T02:12:16;10.90;99.90
16728;DHT22;8482;54.396;18.590;2022-10-31T02:14:43;11.00;99.90
16728;DHT22;8482;54.396;18.590;2022-10-31T02:17:09;11.00;99.90
16728;DHT22;8482;54.396;18.590;2022-10-31T02:34:12;11.30;99.90
16728;DHT22;8482;54.396;18.590;2022-10-31T02:36:47;11.40;99.90
16728;DHT22;8482;54.396;18.590;2022-10-31T02:42:34;11.40;99.90
16728;DHT22;8482;54.396;18.590;2022-10-31T02:47:55;11.50;99.90
16728;DHT22;8482;54.396;18.590;2022-10-31T02:50:30;11.50;99.90
16728;DHT22;8482;54.396;18.590;2022-10-31T02:53:00;11.50;99.90
16728;DHT22;8482;54.396;18.590;2022-10-31T02:58:14;11.60;99.90
16728;DHT22;8482;54.396;18.590;2022-10-31T03:09:27;11.60;99.90
16728;DHT22;8482;54.396;18.590;2022-10-31T03:12:14;11.70;99.90
16728;DHT22;8482;54.396;18.590;2022-10-31T03:17:59;11.70;99.90
16728;DHT22;8482;54.396;18.590;2022-10-31T03:24:13;11.80;99.90
16728;DHT22;8482;54.396;18.590;2022-10-31T03:26:50;11.80;99.90
16728;DHT22;8482;54.396;18.590;2022-10-31T03:29:22;11.80;99.90
16728;DHT22;8482;54.396;18.590;2022-10-31T03:32:01;11.80;99.90
16728;DHT22;8482;54.396;18.590;2022-10-31T03:34:36;11.80;99.90
16728;DHT22;8482;54.396;18.590;2022-10-31T03:37:07;11.90;99.90
16728;DHT22;8482;54.396;18.590;2022-10-31T03:39:38;11.90;99.90
16728;DHT22;8482;54.396;18.590;2022-10-31T03:42:10;11.90;99.90
16728;DHT22;8482;54.396;18.590;2022-10-31T03:44:43;11.90;99.90
16728;DHT22;8482;54.396;18.590;2022-10-31T03:47:12;11.90;99.90
16728;DHT22;8482;54.396;18.590;2022-10-31T03:49:39;11.90;99.90
16728;DHT22;8482;54.396;18.590;2022-10-31T03:52:13;11.90;99.90
16728;DHT22;8482;54.396;18.590;2022-10-31T03:54:54;11.90;99.90
16728;DHT22;8482;54.396;18.590;2022-10-31T03:57:57;11.90;99.90
16728;DHT22;8482;54.396;18.590;2022-10-31T04:00:30;11.90;99.90
16728;DHT22;8482;54.396;18.590;2022-10-31T04:05:45;11.90;99.90
16728;DHT22;8482;54.396;18.590;2022-10-31T04:08:17;12.00;99.90
16728;DHT22;8482;54.396;18.590;2022-10-31T04:10:49;12.00;99.90
16728;DHT22;8482;54.396;18.590;2022-10-31T04:13:20;12.00;99.90
16728;DHT22;8482;54.396;18.590;2022-10-31T04:15:52;12.00;99.90
16728;DHT22;8482;54.396;18.590;2022-10-31T04:18:21;12.00;99.90
16728;DHT22;8482;54.396;18.590;2022-10-31T04:20:48;12.00;99.90
16728;DHT22;8482;54.396;18.590;2022-10-31T04:23:20;12.00;99.90
16728;DHT22;8482;54.396;18.590;2022-10-31T04:25:49;12.10;99.90
16728;DHT22;8482;54.396;18.590;2022-10-31T04:28:15;12.10;99.90
16728;DHT22;8482;54.396;18.590;2022-10-31T04:30:41;12.10;99.90
16728;DHT22;8482;54.396;18.590;2022-10-31T04:33:07;12.10;99.90
16728;DHT22;8482;54.396;18.590;2022-10-31T04:35:32;12.10;99.90
16728;DHT22;8482;54.396;18.590;2022-10-31T04:37:58;12.10;99.90
16728;DHT22;8482;54.396;18.590;2022-10-31T04:40:24;12.10;99.90
16728;DHT22;8482;54.396;18.590;2022-10-31T04:42:50;12.10;99.90
16728;DHT22;8482;54.396;18.590;2022-10-31T04:45:16;12.10;99.90
16728;DHT22;8482;54.396;18.590;2022-10-31T04:47:41;12.10;99.90
16728;DHT22;8482;54.396;18.590;2022-10-31T04:50:08;12.10;99.90
16728;DHT22;8482;54.396;18.590;2022-10-31T04:52:39;12.20;99.90
16728;DHT22;8482;54.396;18.590;2022-10-31T04:55:06;12.20;99.90
16728;DHT22;8482;54.396;18.590;2022-10-31T04:57:32;12.20;99.90
16728;DHT22;8482;54.396;18.590;2022-10-31T05:00:05;12.20;99.90
16728;DHT22;8482;54.396;18.590;2022-10-31T05:02:31;12.20;99.90
16728;DHT22;8482;54.396;18.590;2022-10-31T05:04:57;12.20;99.90
16728;DHT22;8482;54.396;18.590;2022-10-31T05:07:23;12.20;99.90
16728;DHT22;8482;54.396;18.590;2022-10-31T05:09:49;12.20;99.90
16728;DHT22;8482;54.396;18.590;2022-10-31T05:12:15;12.30;99.90
16728;DHT22;8482;54.396;18.590;2022-10-31T05:14:40;12.30;99.90
16728;DHT22;8482;54.396;18.590;2022-10-31T05:17:06;12.30;99.90
16728;DHT22;8482;54.396;18.590;2022-10-31T05:19:32;12.30;99.90
16728;DHT22;8482;54.396;18.590;2022-10-31T05:21:58;12.30;99.90
16728;DHT22;8482;54.396;18.590;2022-10-31T05:24:24;12.30;99.90
16728;DHT22;8482;54.396;18.590;2022-10-31T05:26:49;12.40;99.90
16728;DHT22;8482;54.396;18.590;2022-10-31T05:29:15;12.40;99.90
16728;DHT22;8482;54.396;18.590;2022-10-31T05:31:41;12.40;99.90
16728;DHT22;8482;54.396;18.590;2022-10-31T05:34:07;12.40;99.90
16728;DHT22;8482;54.396;18.590;2022-10-31T05:36:33;12.40;99.90
16728;DHT22;8482;54.396;18.590;2022-10-31T05:38:58;12.40;99.90
16728;DHT22;8482;54.396;18.590;2022-10-31T05:41:24;12.40;99.90
16728;DHT22;8482;54.396;18.590;2022-10-31T05:43:50;12.50;99.90
16728;DHT22;8482;54.396;18.590;2022-10-31T05:46:16;12.50;99.90
16728;DHT22;8482;54.396;18.590;2022-10-31T05:48:42;12.50;99.90
16728;DHT22;8482;54.396;18.590;2022-10-31T05:51:07;12.50;99.90
16728;DHT22;8482;54.396;18.590;2022-10-31T05:53:33;12.50;99.90
16728;DHT22;8482;54.396;18.590;2022-10-31T05:55:59;12.50;99.90
16728;DHT22;8482;54.396;18.590;2022-10-31T05:58:25;12.50;99.90
16728;DHT22;8482;54.396;18.590;2022-10-31T06:00:50;12.60;99.90
16728;DHT22;8482;54.396;18.590;2022-10-31T06:03:16;12.60;99.90
16728;DHT22;8482;54.396;18.590;2022-10-31T06:05:42;12.60;99.90
16728;DHT22;8482;54.396;18.590;2022-10-31T06:08:08;12.60;99.90
16728;DHT22;8482;54.396;18.590;2022-10-31T06:10:33;12.60;99.90
16728;DHT22;8482;54.396;18.590;2022-10-31T06:12:59;12.60;99.90
16728;DHT22;8482;54.396;18.590;2022-10-31T06:15:25;12.70;99.90
16728;DHT22;8482;54.396;18.590;2022-10-31T06:18:02;12.60;99.90
16728;DHT22;8482;54.396;18.590;2022-10-31T06:20:30;12.70;99.90
16728;DHT22;8482;54.396;18.590;2022-10-31T06:22:56;12.70;99.90
16728;DHT22;8482;54.396;18.590;2022-10-31T06:25:22;12.70;99.90
16728;DHT22;8482;54.396;18.590;2022-10-31T06:27:48;12.70;99.90
16728;DHT22;8482;54.396;18.590;2022-10-31T06:30:14;12.80;99.90
16728;DHT22;8482;54.396;18.590;2022-10-31T06:32:40;12.80;99.90
16728;DHT22;8482;54.396;18.590;2022-10-31T06:35:06;12.80;99.90
16728;DHT22;8482;54.396;18.590;2022-10-31T06:37:32;12.80;99.90
16728;DHT22;8482;54.396;18.590;2022-10-31T06:39:58;12.80;99.90
16728;DHT22;8482;54.396;18.590;2022-10-31T06:42:24;12.90;99.90
16728;DHT22;8482;54.396;18.590;2022-10-31T06:44:50;12.90;99.90
16728;DHT22;8482;54.396;18.590;2022-10-31T06:47:16;12.90;99.90
16728;DHT22;8482;54.396;18.590;2022-10-31T06:49:41;13.00;99.90
16728;DHT22;8482;54.396;18.590;2022-10-31T06:52:07;13.00;99.90
16728;DHT22;8482;54.396;18.590;2022-10-31T06:54:33;13.00;99.90
16728;DHT22;8482;54.396;18.590;2022-10-31T06:56:59;13.00;99.90
16728;DHT22;8482;54.396;18.590;2022-10-31T06:59:25;13.00;99.90
16728;DHT22;8482;54.396;18.590;2022-10-31T07:01:50;13.10;99.90
16728;DHT22;8482;54.396;18.590;2022-10-31T07:04:16;13.10;99.90
16728;DHT22;8482;54.396;18.590;2022-10-31T07:06:42;13.10;99.90
16728;DHT22;8482;54.396;18.590;2022-10-31T07:09:08;13.10;99.90
16728;DHT22;8482;54.396;18.590;2022-10-31T07:11:34;13.20;99.90
16728;DHT22;8482;54.396;18.590;2022-10-31T07:13:59;13.20;99.90
16728;DHT22;8482;54.396;18.590;2022-10-31T07:16:26;13.20;99.90
16728;DHT22;8482;54.396;18.590;2022-10-31T07:18:52;13.30;99.90
16728;DHT22;8482;54.396;18.590;2022-10-31T07:21:18;13.30;99.90
16728;DHT22;8482;54.396;18.590;2022-10-31T07:23:44;13.30;99.90
16728;DHT22;8482;54.396;18.590;2022-10-31T07:26:13;13.40;99.90
16728;DHT22;8482;54.396;18.590;2022-10-31T07:28:39;13.40;99.90
16728;DHT22;8482;54.396;18.590;2022-10-31T07:31:05;13.50;99.90
16728;DHT22;8482;54.396;18.590;2022-10-31T07:33:30;13.50;99.90
16728;DHT22;8482;54.396;18.590;2022-10-31T07:35:56;13.60;99.90
16728;DHT22;8482;54.396;18.590;2022-10-31T07:38:22;13.60;99.90
16728;DHT22;8482;54.396;18.590;2022-10-31T07:40:52;13.70;99.90
16728;DHT22;8482;54.396;18.590;2022-10-31T07:43:18;13.70;99.90
16728;DHT22;8482;54.396;18.590;2022-10-31T07:45:52;13.70;99.90
16728;DHT22;8482;54.396;18.590;2022-10-31T07:48:19;13.70;99.90
16728;DHT22;8482;54.396;18.590;2022-10-31T07:50:45;13.80;99.90
16728;DHT22;8482;54.396;18.590;2022-10-31T07:53:13;13.80;99.90
16728;DHT22;8482;54.396;18.590;2022-10-31T07:55:40;13.80;99.90
16728;DHT22;8482;54.396;18.590;2022-10-31T07:58:14;13.90;99.90
16728;DHT22;8482;54.396;18.590;2022-10-31T08:00:42;13.90;99.90
16728;DHT22;8482;54.396;18.590;2022-10-31T08:03:15;14.00;99.90
16728;DHT22;8482;54.396;18.590;2022-10-31T08:05:43;14.00;99.90
16728;DHT22;8482;54.396;18.590;2022-10-31T08:08:11;14.00;99.90
16728;DHT22;8482;54.396;18.590;2022-10-31T08:10:39;14.10;99.90
16728;DHT22;8482;54.396;18.590;2022-10-31T08:13:11;14.10;99.90
16728;DHT22;8482;54.396;18.590;2022-10-31T08:15:38;14.10;99.90
16728;DHT22;8482;54.396;18.590;2022-10-31T08:18:13;14.20;99.90
16728;DHT22;8482;54.396;18.590;2022-10-31T08:20:41;14.20;99.90
16728;DHT22;8482;54.396;18.590;2022-10-31T08:23:09;14.20;99.90
16728;DHT22;8482;54.396;18.590;2022-10-31T08:25:37;14.30;99.90
16728;DHT22;8482;54.396;18.590;2022-10-31T08:28:03;14.30;99.90
16728;DHT22;8482;54.396;18.590;2022-10-31T08:30:32;14.30;99.90
16728;DHT22;8482;54.396;18.590;2022-10-31T08:35:31;14.40;99.90
16728;DHT22;8482;54.396;18.590;2022-10-31T08:37:59;14.40;99.90
16728;DHT22;8482;54.396;18.590;2022-10-31T08:40:27;14.50;99.90
16728;DHT22;8482;54.396;18.590;2022-10-31T08:42:58;14.50;99.90
16728;DHT22;8482;54.396;18.590;2022-10-31T08:45:29;14.50;99.90
16728;DHT22;8482;54.396;18.590;2022-10-31T08:48:01;14.60;99.90
16728;DHT22;8482;54.396;18.590;2022-10-31T08:50:30;14.60;99.90
16728;DHT22;8482;54.396;18.590;2022-10-31T08:53:06;14.60;99.90
16728;DHT22;8482;54.396;18.590;2022-10-31T08:55:34;14.70;99.90
16728;DHT22;8482;54.396;18.590;2022-10-31T08:58:01;14.70;99.90
16728;DHT22;8482;54.396;18.590;2022-10-31T09:00:33;14.70;99.90
16728;DHT22;8482;54.396;18.590;2022-10-31T09:03:02;14.70;99.90
16728;DHT22;8482;54.396;18.590;2022-10-31T09:05:34;14.70;99.90
16728;DHT22;8482;54.396;18.590;2022-10-31T09:08:02;14.80;99.90
16728;DHT22;8482;54.396;18.590;2022-10-31T09:10:30;14.80;99.90
16728;DHT22;8482;54.396;18.590;2022-10-31T09:13:20;14.80;99.90
16728;DHT22;8482;54.396;18.590;2022-10-31T09:15:48;14.80;99.90
16728;DHT22;8482;54.396;18.590;2022-10-31T09:18:17;14.90;99.90
16728;DHT22;8482;54.396;18.590;2022-10-31T09:20:46;14.90;99.90
16728;DHT22;8482;54.396;18.590;2022-10-31T09:23:13;14.90;99.90
16728;DHT22;8482;54.396;18.590;2022-10-31T09:25:41;15.00;99.90
16728;DHT22;8482;54.396;18.590;2022-10-31T09:28:10;15.00;99.90
16728;DHT22;8482;54.396;18.590;2022-10-31T09:30:37;15.00;99.90
16728;DHT22;8482;54.396;18.590;2022-10-31T09:33:09;15.00;99.90
16728;DHT22;8482;54.396;18.590;2022-10-31T09:35:37;15.00;99.90
16728;DHT22;8482;54.396;18.590;2022-10-31T09:38:25;15.10;99.90
16728;DHT22;8482;54.396;18.590;2022-10-31T09:41:19;15.10;99.90
16728;DHT22;8482;54.396;18.590;2022-10-31T09:52:37;15.10;99.90
16728;DHT22;8482;54.396;18.590;2022-10-31T09:55:39;15.10;99.90
16728;DHT22;8482;54.396;18.590;2022-10-31T09:58:16;15.20;99.90
16728;DHT22;8482;54.396;18.590;2022-10-31T10:00:47;15.20;99.90
16728;DHT22;8482;54.396;18.590;2022-10-31T10:03:44;15.10;99.90
16728;DHT22;8482;54.396;18.590;2022-10-31T10:06:19;15.20;99.90
16728;DHT22;8482;54.396;18.590;2022-10-31T10:08:49;15.20;99.90
16728;DHT22;8482;54.396;18.590;2022-10-31T10:17:21;15.20;99.90
16728;DHT22;8482;54.396;18.590;2022-10-31T10:22:52;15.30;99.90
16728;DHT22;8482;54.396;18.590;2022-10-31T10:25:33;15.30;99.90
16728;DHT22;8482;54.396;18.590;2022-10-31T10:28:19;15.30;99.90
16728;DHT22;8482;54.396;18.590;2022-10-31T10:33:30;15.30;99.90
16728;DHT22;8482;54.396;18.590;2022-10-31T10:36:04;15.30;99.90
16728;DHT22;8482;54.396;18.590;2022-10-31T10:41:19;15.40;99.90
16728;DHT22;8482;54.396;18.590;2022-10-31T10:43:51;15.40;99.90
16728;DHT22;8482;54.396;18.590;2022-10-31T10:46:42;15.40;99.90
16728;DHT22;8482;54.396;18.590;2022-10-31T10:55:08;15.40;99.90
16728;DHT22;8482;54.396;18.590;2022-10-31T10:58:08;15.40;99.90
16728;DHT22;8482;54.396;18.590;2022-10-31T11:03:05;15.40;99.90
16728;DHT22;8482;54.396;18.590;2022-10-31T11:05:50;15.40;99.90
16728;DHT22;8482;54.396;18.590;2022-10-31T11:08:29;15.50;99.90
16728;DHT22;8482;54.396;18.590;2022-10-31T11:11:22;15.50;99.90
16728;DHT22;8482;54.396;18.590;2022-10-31T11:13:55;15.50;99.90
16728;DHT22;8482;54.396;18.590;2022-10-31T11:16:40;15.50;99.90
16728;DHT22;8482;54.396;18.590;2022-10-31T11:19:19;15.50;99.90
16728;DHT22;8482;54.396;18.590;2022-10-31T11:21:48;15.50;99.90
16728;DHT22;8482;54.396;18.590;2022-10-31T11:24:17;15.50;99.90
16728;DHT22;8482;54.396;18.590;2022-10-31T11:26:47;15.50;99.90
16728;DHT22;8482;54.396;18.590;2022-10-31T11:29:24;15.50;99.90
16728;DHT22;8482;54.396;18.590;2022-10-31T11:31:53;15.50;99.90
16728;DHT22;8482;54.396;18.590;2022-10-31T11:34:33;15.60;99.90
16728;DHT22;8482;54.396;18.590;2022-10-31T11:39:55;15.60;99.90
16728;DHT22;8482;54.396;18.590;2022-10-31T11:42:29;15.60;99.90
16728;DHT22;8482;54.396;18.590;2022-10-31T11:45:53;15.60;99.90
16728;DHT22;8482;54.396;18.590;2022-10-31T11:48:00;15.60;99.90
16728;DHT22;8482;54.396;18.590;2022-10-31T11:50:38;15.60;99.90
16728;DHT22;8482;54.396;18.590;2022-10-31T11:53:28;15.60;99.90
16728;DHT22;8482;54.396;18.590;2022-10-31T11:56:15;15.60;99.90
16728;DHT22;8482;54.396;18.590;2022-10-31T11:58:42;15.60;99.90
16728;DHT22;8482;54.396;18.590;2022-10-31T12:01:27;15.60;99.90
16728;DHT22;8482;54.396;18.590;2022-10-31T12:06:39;15.60;99.90
16728;DHT22;8482;54.396;18.590;2022-10-31T12:09:28;15.60;99.90
16728;DHT22;8482;54.396;18.590;2022-10-31T12:13:24;15.60;99.90
16728;DHT22;8482;54.396;18.590;2022-10-31T12:15:38;15.60;99.90
16728;DHT22;8482;54.396;18.590;2022-10-31T12:21:13;15.60;99.90
16728;DHT22;8482;54.396;18.590;2022-10-31T12:26:42;15.60;99.90
16728;DHT22;8482;54.396;18.590;2022-10-31T12:32:58;15.60;99.90
16728;DHT22;8482;54.396;18.590;2022-10-31T12:35:58;15.60;99.90
16728;DHT22;8482;54.396;18.590;2022-10-31T12:39:00;15.60;99.90
16728;DHT22;8482;54.396;18.590;2022-10-31T12:45:08;15.50;99.90
16728;DHT22;8482;54.396;18.590;2022-10-31T12:48:18;15.60;99.90
16728;DHT22;8482;54.396;18.590;2022-10-31T13:02:21;15.50;99.90
16728;DHT22;8482;54.396;18.590;2022-10-31T13:05:05;15.50;99.90
16728;DHT22;8482;54.396;18.590;2022-10-31T13:07:46;15.50;99.90
16728;DHT22;8482;54.396;18.590;2022-10-31T13:10:23;15.50;99.90
16728;DHT22;8482;54.396;18.590;2022-10-31T13:12:53;15.50;99.90
16728;DHT22;8482;54.396;18.590;2022-10-31T13:15:27;15.50;99.90
16728;DHT22;8482;54.396;18.590;2022-10-31T13:18:04;15.50;99.90
16728;DHT22;8482;54.396;18.590;2022-10-31T13:20:47;15.50;99.90
16728;DHT22;8482;54.396;18.590;2022-10-31T13:23:30;15.50;99.90
16728;DHT22;8482;54.396;18.590;2022-10-31T13:26:03;15.50;99.90
16728;DHT22;8482;54.396;18.590;2022-10-31T13:28:46;15.50;99.90
16728;DHT22;8482;54.396;18.590;2022-10-31T13:31:43;15.50;99.90
16728;DHT22;8482;54.396;18.590;2022-10-31T13:34:20;15.50;99.90
16728;DHT22;8482;54.396;18.590;2022-10-31T13:36:59;15.50;99.90
16728;DHT22;8482;54.396;18.590;2022-10-31T13:42:57;15.50;99.90
16728;DHT22;8482;54.396;18.590;2022-10-31T13:45:54;15.50;99.90
16728;DHT22;8482;54.396;18.590;2022-10-31T13:48:40;15.40;99.90
16728;DHT22;8482;54.396;18.590;2022-10-31T13:51:09;15.40;99.90
16728;DHT22;8482;54.396;18.590;2022-10-31T13:59:01;15.40;99.90
16728;DHT22;8482;54.396;18.590;2022-10-31T14:01:28;15.40;99.90
16728;DHT22;8482;54.396;18.590;2022-10-31T14:04:07;15.30;99.90
16728;DHT22;8482;54.396;18.590;2022-10-31T14:06:51;15.30;99.90
16728;DHT22;8482;54.396;18.590;2022-10-31T14:09:36;15.30;99.90
16728;DHT22;8482;54.396;18.590;2022-10-31T14:12:13;15.30;99.90
16728;DHT22;8482;54.396;18.590;2022-10-31T14:15:25;15.30;99.90
16728;DHT22;8482;54.396;18.590;2022-10-31T14:18:05;15.30;99.90
16728;DHT22;8482;54.396;18.590;2022-10-31T14:23:36;15.30;99.90
16728;DHT22;8482;54.396;18.590;2022-10-31T14:29:21;15.30;99.90
16728;DHT22;8482;54.396;18.590;2022-10-31T14:32:06;15.30;99.90
16728;DHT22;8482;54.396;18.590;2022-10-31T14:34:52;15.30;99.90
16728;DHT22;8482;54.396;18.590;2022-10-31T14:52:06;15.20;99.90
16728;DHT22;8482;54.396;18.590;2022-10-31T14:54:46;15.20;99.90
16728;DHT22;8482;54.396;18.590;2022-10-31T14:57:25;15.30;99.90
16728;DHT22;8482;54.396;18.590;2022-10-31T14:59:58;15.30;99.90
16728;DHT22;8482;54.396;18.590;2022-10-31T15:05:15;15.20;99.90
16728;DHT22;8482;54.396;18.590;2022-10-31T15:07:56;15.30;99.90
16728;DHT22;8482;54.396;18.590;2022-10-31T15:10:29;15.20;99.90
16728;DHT22;8482;54.396;18.590;2022-10-31T15:13:18;15.20;99.90
16728;DHT22;8482;54.396;18.590;2022-10-31T15:15:47;15.20;99.90
16728;DHT22;8482;54.396;18.590;2022-10-31T15:18:21;15.20;99.90
16728;DHT22;8482;54.396;18.590;2022-10-31T15:20:52;15.20;99.90
16728;DHT22;8482;54.396;18.590;2022-10-31T15:23:26;15.20;99.90
16728;DHT22;8482;54.396;18.590;2022-10-31T15:26:01;15.20;99.90
16728;DHT22;8482;54.396;18.590;2022-10-31T15:28:29;15.20;99.90
16728;DHT22;8482;54.396;18.590;2022-10-31T15:30:58;15.20;99.90
16728;DHT22;8482;54.396;18.590;2022-10-31T15:33:39;15.20;99.90
16728;DHT22;8482;54.396;18.590;2022-10-31T15:36:19;15.20;99.90
16728;DHT22;8482;54.396;18.590;2022-10-31T15:38:50;15.20;99.90
16728;DHT22;8482;54.396;18.590;2022-10-31T15:41:35;15.20;99.90
16728;DHT22;8482;54.396;18.590;2022-10-31T15:44:30;15.20;99.90
16728;DHT22;8482;54.396;18.590;2022-10-31T15:47:13;15.20;99.90
16728;DHT22;8482;54.396;18.590;2022-10-31T15:49:53;15.20;99.90
16728;DHT22;8482;54.396;18.590;2022-10-31T15:52:38;15.20;99.90
16728;DHT22;8482;54.396;18.590;2022-10-31T15:57:52;15.20;99.90
16728;DHT22;8482;54.396;18.590;2022-10-31T16:00:32;15.20;99.90
16728;DHT22;8482;54.396;18.590;2022-10-31T16:05:49;15.10;99.90
16728;DHT22;8482;54.396;18.590;2022-10-31T16:10:57;15.10;99.90
16728;DHT22;8482;54.396;18.590;2022-10-31T16:13:30;15.10;99.90
16728;DHT22;8482;54.396;18.590;2022-10-31T16:16:01;15.10;99.90
16728;DHT22;8482;54.396;18.590;2022-10-31T16:18:34;15.10;99.90
16728;DHT22;8482;54.396;18.590;2022-10-31T16:21:02;15.10;99.90
16728;DHT22;8482;54.396;18.590;2022-10-31T16:23:30;15.10;99.90
16728;DHT22;8482;54.396;18.590;2022-10-31T16:25:56;15.10;99.90
16728;DHT22;8482;54.396;18.590;2022-10-31T16:28:24;15.10;99.90
16728;DHT22;8482;54.396;18.590;2022-10-31T16:30:54;15.10;99.90
16728;DHT22;8482;54.396;18.590;2022-10-31T16:33:33;15.10;99.90
16728;DHT22;8482;54.396;18.590;2022-10-31T16:36:38;15.10;99.90
16728;DHT22;8482;54.396;18.590;2022-10-31T16:39:05;15.10;99.90
16728;DHT22;8482;54.396;18.590;2022-10-31T16:41:35;15.10;99.90
16728;DHT22;8482;54.396;18.590;2022-10-31T16:44:24;15.10;99.90
16728;DHT22;8482;54.396;18.590;2022-10-31T16:49:47;15.10;99.90
16728;DHT22;8482;54.396;18.590;2022-10-31T16:52:15;15.10;99.90
16728;DHT22;8482;54.396;18.590;2022-10-31T16:54:41;15.10;99.90
16728;DHT22;8482;54.396;18.590;2022-10-31T16:57:15;15.00;99.90
16728;DHT22;8482;54.396;18.590;2022-10-31T16:59:49;15.10;99.90
16728;DHT22;8482;54.396;18.590;2022-10-31T17:02:19;15.10;99.90
16728;DHT22;8482;54.396;18.590;2022-10-31T17:04:45;15.00;99.90
16728;DHT22;8482;54.396;18.590;2022-10-31T17:07:11;15.00;99.90
16728;DHT22;8482;54.396;18.590;2022-10-31T17:09:37;15.00;99.90
16728;DHT22;8482;54.396;18.590;2022-10-31T17:12:04;15.00;99.90
16728;DHT22;8482;54.396;18.590;2022-10-31T17:14:32;15.00;99.90
16728;DHT22;8482;54.396;18.590;2022-10-31T17:16:59;15.00;99.90
16728;DHT22;8482;54.396;18.590;2022-10-31T17:19:25;15.00;99.90
16728;DHT22;8482;54.396;18.590;2022-10-31T17:21:51;15.00;99.90
16728;DHT22;8482;54.396;18.590;2022-10-31T17:24:16;15.00;99.90
16728;DHT22;8482;54.396;18.590;2022-10-31T17:26:42;15.00;99.90
16728;DHT22;8482;54.396;18.590;2022-10-31T17:29:08;15.00;99.90
16728;DHT22;8482;54.396;18.590;2022-10-31T17:31:35;15.00;99.90
16728;DHT22;8482;54.396;18.590;2022-10-31T17:34:03;15.00;99.90
16728;DHT22;8482;54.396;18.590;2022-10-31T17:36:32;15.00;99.90
16728;DHT22;8482;54.396;18.590;2022-10-31T17:38:58;15.00;99.90
16728;DHT22;8482;54.396;18.590;2022-10-31T17:41:24;15.00;99.90
16728;DHT22;8482;54.396;18.590;2022-10-31T17:43:54;15.00;99.90
16728;DHT22;8482;54.396;18.590;2022-10-31T17:46:21;15.00;99.90
16728;DHT22;8482;54.396;18.590;2022-10-31T17:48:47;15.00;99.90
16728;DHT22;8482;54.396;18.590;2022-10-31T17:51:12;15.00;99.90
16728;DHT22;8482;54.396;18.590;2022-10-31T17:53:38;15.00;99.90
16728;DHT22;8482;54.396;18.590;2022-10-31T17:56:06;15.00;99.90
16728;DHT22;8482;54.396;18.590;2022-10-31T17:58:34;15.00;99.90
16728;DHT22;8482;54.396;18.590;2022-10-31T18:01:15;15.00;99.90
16728;DHT22;8482;54.396;18.590;2022-10-31T18:03:43;15.00;99.90
16728;DHT22;8482;54.396;18.590;2022-10-31T18:06:10;15.00;99.90
16728;DHT22;8482;54.396;18.590;2022-10-31T18:08:42;15.00;99.90
16728;DHT22;8482;54.396;18.590;2022-10-31T18:11:16;15.00;99.90
16728;DHT22;8482;54.396;18.590;2022-10-31T18:13:45;15.00;99.90
16728;DHT22;8482;54.396;18.590;2022-10-31T18:16:14;15.00;99.90
16728;DHT22;8482;54.396;18.590;2022-10-31T18:18:43;15.00;99.90
16728;DHT22;8482;54.396;18.590;2022-10-31T18:21:09;15.00;99.90
16728;DHT22;8482;54.396;18.590;2022-10-31T18:23:35;15.00;99.90
16728;DHT22;8482;54.396;18.590;2022-10-31T18:26:01;15.00;99.90
16728;DHT22;8482;54.396;18.590;2022-10-31T18:28:27;15.00;99.90
16728;DHT22;8482;54.396;18.590;2022-10-31T18:30:52;15.00;99.90
16728;DHT22;8482;54.396;18.590;2022-10-31T18:33:18;15.00;99.90